Time;durP1;ratioP1;P1;durP2;ratioP2;P2;SDS_P1;SDS_P2;PMS_P1;PMS_P2;Temp;Humidity;BMP_temperature;BMP_pressure;BME280_temperature;BME280_humidity;BME280_pressure;Samples;Min_cycle;Max_cycle;Signal;HPM_P1;HPM_P2
2021/08/17 00:01:22;;;;;;;;;22.00;21.00;;;;;;;;5072786;28;51148;-53
2021/08/17 00:03:47;;;;;;;;;22.25;19.25;;;;;;;;5072985;28;51154;-53
2021/08/17 00:06:12;;;;;;;;;26.50;23.00;;;;;;;;5072575;28;51422;-53
2021/08/17 00:08:37;;;;;;;;;27.25;25.25;;;;;;;;5072535;28;51045;-50
2021/08/17 00:11:02;;;;;;;;;24.00;24.00;;;;;;;;5072069;28;50947;-53
2021/08/17 00:13:28;;;;;;;;;23.00;22.75;;;;;;;;5054631;28;51002;-52
2021/08/17 00:15:53;;;;;;;;;28.25;26.00;;;;;;;;5072725;28;51188;-53
2021/08/17 00:18:18;;;;;;;;;21.25;21.00;;;;;;;;5072460;28;51155;-53
2021/08/17 00:20:43;;;;;;;;;23.25;22.25;;;;;;;;5072189;28;51132;-51
2021/08/17 00:23:09;;;;;;;;;24.25;23.25;;;;;;;;5072604;28;51020;-53
2021/08/17 00:25:35;;;;;;;;;20.75;20.00;;;;;;;;5055145;28;51291;-53
2021/08/17 00:28:00;;;;;;;;;22.50;22.00;;;;;;;;5069503;27;51395;-52
2021/08/17 00:30:26;;;;;;;;;22.25;20.25;;;;;;;;5074371;28;50946;-53
2021/08/17 00:32:51;;;;;;;;;20.50;19.00;;;;;;;;5075999;28;51003;-52
2021/08/17 00:35:16;;;;;;;;;24.25;21.00;;;;;;;;5076062;28;51289;-52
2021/08/17 00:37:42;;;;;;;;;21.00;19.75;;;;;;;;5075506;28;51709;-51
2021/08/17 00:40:07;;;;;;;;;19.25;17.75;;;;;;;;5075307;28;50974;-55
2021/08/17 00:42:38;;;;;;;;;23.00;20.25;;;;;;;;5075596;28;50963;-54
2021/08/17 00:45:03;;;;;;;;;20.00;18.00;;;;;;;;5075909;28;51192;-53
2021/08/17 00:47:29;;;;;;;;;20.00;17.50;;;;;;;;5075465;28;50989;-53
2021/08/17 00:49:54;;;;;;;;;20.75;19.50;;;;;;;;5075525;28;51088;-51
2021/08/17 00:52:19;;;;;;;;;17.50;17.00;;;;;;;;5075550;28;50907;-53
2021/08/17 00:54:44;;;;;;;;;19.00;16.50;;;;;;;;5075464;28;51205;-53
2021/08/17 00:57:11;;;;;;;;;19.00;17.25;;;;;;;;5075289;28;51828;-54
2021/08/17 00:59:36;;;;;;;;;15.50;15.00;;;;;;;;5075551;28;50889;-53
2021/08/17 01:02:02;;;;;;;;;17.75;16.00;;;;;;;;5075490;28;50952;-54
2021/08/17 01:04:27;;;;;;;;;16.50;15.00;;;;;;;;5075643;28;50839;-54
2021/08/17 01:06:52;;;;;;;;;18.50;15.50;;;;;;;;5075084;28;51908;-53
2021/08/17 01:09:18;;;;;;;;;18.75;17.50;;;;;;;;5074978;28;50951;-53
2021/08/17 01:11:44;;;;;;;;;17.25;16.50;;;;;;;;5075482;28;50911;-53
2021/08/17 01:14:09;;;;;;;;;22.00;22.00;;;;;;;;5075326;28;51030;-52
2021/08/17 01:16:34;;;;;;;;;18.50;17.25;;;;;;;;5074902;28;52763;-52
2021/08/17 01:18:59;;;;;;;;;21.00;20.25;;;;;;;;5075308;28;50933;-52
2021/08/17 01:21:25;;;;;;;;;20.00;18.50;;;;;;;;5075179;28;50981;-51
2021/08/17 01:23:50;;;;;;;;;21.00;20.00;;;;;;;;5075357;28;51275;-54
2021/08/17 01:26:15;;;;;;;;;19.50;17.25;;;;;;;;5074669;28;51148;-53
2021/08/17 01:28:41;;;;;;;;;19.25;18.50;;;;;;;;5075037;28;51083;-51
2021/08/17 01:31:06;;;;;;;;;20.75;18.00;;;;;;;;5075030;28;51092;-51
2021/08/17 01:33:32;;;;;;;;;19.25;17.75;;;;;;;;5075164;28;50946;-53
2021/08/17 01:35:57;;;;;;;;;21.00;18.25;;;;;;;;5074379;28;52407;-51
2021/08/17 01:38:23;;;;;;;;;19.50;18.25;;;;;;;;5074801;28;50976;-51
2021/08/17 01:40:48;;;;;;;;;18.00;17.75;;;;;;;;5074646;28;51108;-53
2021/08/17 01:43:14;;;;;;;;;19.75;18.00;;;;;;;;5056674;28;50965;-53
2021/08/17 01:45:39;;;;;;;;;16.25;16.00;;;;;;;;5074844;28;52127;-53
2021/08/17 01:48:05;;;;;;;;;19.75;17.75;;;;;;;;5074652;28;51180;-54
2021/08/17 01:50:31;;;;;;;;;18.50;17.50;;;;;;;;5074944;28;51081;-53
2021/08/17 01:52:56;;;;;;;;;17.75;16.00;;;;;;;;5074699;28;51157;-53
2021/08/17 01:55:21;;;;;;;;;24.00;19.50;;;;;;;;5074344;28;51351;-52
2021/08/17 01:57:46;;;;;;;;;19.50;17.50;;;;;;;;5074614;28;50860;-53
2021/08/17 02:00:12;;;;;;;;;18.50;16.75;;;;;;;;5074702;28;51127;-53
2021/08/17 02:02:38;;;;;;;;;17.25;16.50;;;;;;;;5074528;28;51304;-53
2021/08/17 02:05:04;;;;;;;;;19.00;17.50;;;;;;;;5074176;28;50934;-53
2021/08/17 02:07:29;;;;;;;;;19.50;17.75;;;;;;;;5074229;28;51056;-51
2021/08/17 02:09:54;;;;;;;;;18.25;18.00;;;;;;;;5074138;28;51039;-52
2021/08/17 02:12:19;;;;;;;;;21.75;18.50;;;;;;;;5074713;28;51026;-52
2021/08/17 02:14:45;;;;;;;;;11.50;11.50;;;;;;;;5074199;28;52116;-53
2021/08/17 02:17:10;;;;;;;;;19.25;18.00;;;;;;;;5074231;28;50929;-52
2021/08/17 02:19:35;;;;;;;;;15.50;14.00;;;;;;;;5074495;28;50923;-53
2021/08/17 02:22:01;;;;;;;;;19.50;17.75;;;;;;;;5074320;28;51163;-52
2021/08/17 02:24:26;;;;;;;;;17.50;16.25;;;;;;;;5073632;28;51738;-52
2021/08/17 02:26:51;;;;;;;;;16.50;15.00;;;;;;;;5055864;28;50942;-52
2021/08/17 02:29:17;;;;;;;;;5.50;5.50;;;;;;;;5065492;27;50941;-50
2021/08/17 02:31:42;;;;;;;;;16.25;15.50;;;;;;;;5070164;28;51074;-53
2021/08/17 02:34:07;;;;;;;;;15.00;15.00;;;;;;;;5074183;28;51064;-54
2021/08/17 02:36:32;;;;;;;;;13.50;12.25;;;;;;;;5074027;28;51079;-52
2021/08/17 02:38:58;;;;;;;;;18.00;17.25;;;;;;;;5055823;28;51155;-55
2021/08/17 02:41:23;;;;;;;;;17.75;16.50;;;;;;;;5073709;28;51836;-51
2021/08/17 02:43:48;;;;;;;;;15.00;14.50;;;;;;;;5035576;28;53411;-54
2021/08/17 02:46:13;;;;;;;;;15.75;15.25;;;;;;;;5069434;28;51298;-53
2021/08/17 02:48:38;;;;;;;;;17.25;14.75;;;;;;;;5073081;28;51068;-53
2021/08/17 02:51:04;;;;;;;;;20.50;18.00;;;;;;;;5073951;28;51367;-53
2021/08/17 02:53:29;;;;;;;;;16.50;15.00;;;;;;;;5073443;28;52972;-54
2021/08/17 02:55:54;;;;;;;;;14.50;13.50;;;;;;;;5073321;28;51288;-54
2021/08/17 02:58:19;;;;;;;;;19.00;16.75;;;;;;;;5073951;28;51068;-53
2021/08/17 03:00:46;;;;;;;;;16.00;15.00;;;;;;;;5055633;28;51322;-54
2021/08/17 03:03:11;;;;;;;;;17.25;16.00;;;;;;;;5073720;28;51980;-53
2021/08/17 03:05:37;;;;;;;;;19.00;17.75;;;;;;;;5073413;28;51049;-52
2021/08/17 03:08:03;;;;;;;;;22.75;20.00;;;;;;;;5055334;28;51077;-52
2021/08/17 03:10:29;;;;;;;;;21.00;18.25;;;;;;;;5073363;28;51292;-50
2021/08/17 03:12:54;;;;;;;;;20.00;19.50;;;;;;;;5054670;28;52940;-54
2021/08/17 03:15:20;;;;;;;;;16.00;15.25;;;;;;;;5073364;28;50902;-52
2021/08/17 03:17:45;;;;;;;;;19.75;17.75;;;;;;;;5055295;28;51202;-52
2021/08/17 03:20:11;;;;;;;;;14.25;13.00;;;;;;;;5073342;28;50942;-54
2021/08/17 03:22:37;;;;;;;;;21.00;18.75;;;;;;;;5072984;28;54258;-53
2021/08/17 03:25:04;;;;;;;;;15.50;13.00;;;;;;;;5071077;28;50959;-53
2021/08/17 03:27:29;;;;;;;;;21.25;20.00;;;;;;;;5073533;28;51053;-54
2021/08/17 03:29:54;;;;;;;;;21.50;19.00;;;;;;;;5073277;28;51217;-54
2021/08/17 03:32:19;;;;;;;;;18.50;16.00;;;;;;;;5073128;28;51865;-54
2021/08/17 03:34:45;;;;;;;;;18.25;16.00;;;;;;;;5073190;28;50931;-54
2021/08/17 03:37:10;;;;;;;;;16.75;15.75;;;;;;;;5073453;28;50993;-53
2021/08/17 03:39:35;;;;;;;;;18.25;17.00;;;;;;;;5072981;28;51466;-52
2021/08/17 03:42:00;;;;;;;;;16.50;15.50;;;;;;;;5072904;28;52243;-53
2021/08/17 03:44:26;;;;;;;;;15.75;14.50;;;;;;;;5072987;28;50885;-53
2021/08/17 03:46:51;;;;;;;;;20.75;16.00;;;;;;;;5073209;28;51235;-53
2021/08/17 03:49:17;;;;;;;;;17.25;14.25;;;;;;;;5073183;28;51089;-52
2021/08/17 03:51:42;;;;;;;;;16.25;15.25;;;;;;;;5072862;28;51352;-52
2021/08/17 03:54:07;;;;;;;;;13.50;12.25;;;;;;;;5072368;28;51112;-54
2021/08/17 03:56:33;;;;;;;;;14.75;14.00;;;;;;;;5073056;28;50831;-53
2021/08/17 03:58:58;;;;;;;;;14.50;14.00;;;;;;;;5073436;28;51406;-53
2021/08/17 04:01:23;;;;;;;;;16.25;14.00;;;;;;;;5079562;28;51257;-53
2021/08/17 04:03:48;;;;;;;;;17.50;15.25;;;;;;;;5079609;28;50945;-54
2021/08/17 04:06:13;;;;;;;;;15.25;14.75;;;;;;;;5079435;28;51080;-50
2021/08/17 04:08:39;;;;;;;;;14.75;13.50;;;;;;;;5079605;28;51265;-53
2021/08/17 04:11:04;;;;;;;;;12.50;11.00;;;;;;;;5079138;28;52003;-53
2021/08/17 04:13:29;;;;;;;;;13.25;13.00;;;;;;;;5079386;28;51080;-52
2021/08/17 04:15:54;;;;;;;;;15.00;13.50;;;;;;;;5079302;28;51101;-52
2021/08/17 04:18:20;;;;;;;;;12.75;12.00;;;;;;;;5079529;28;50910;-54
2021/08/17 04:20:45;;;;;;;;;21.50;16.25;;;;;;;;5078825;28;50981;-51
2021/08/17 04:23:10;;;;;;;;;17.25;15.50;;;;;;;;5060966;28;51123;-54
2021/08/17 04:25:35;;;;;;;;;13.75;13.00;;;;;;;;5079016;28;51001;-53
2021/08/17 04:28:01;;;;;;;;;14.25;13.75;;;;;;;;5079521;28;50913;-52
2021/08/17 04:30:26;;;;;;;;;18.75;18.75;;;;;;;;5059022;28;54155;-51
2021/08/17 04:32:51;;;;;;;;;14.75;13.25;;;;;;;;5079345;28;50908;-53
2021/08/17 04:35:19;;;;;;;;;13.50;13.50;;;;;;;;5060905;28;50957;-51
2021/08/17 04:37:44;;;;;;;;;14.75;14.00;;;;;;;;5061220;28;51207;-51
2021/08/17 04:40:10;;;;;;;;;16.50;14.50;;;;;;;;5078464;28;52871;-52
2021/08/17 04:42:35;;;;;;;;;18.00;16.25;;;;;;;;5079180;28;50903;-54
2021/08/17 04:45:00;;;;;;;;;17.75;14.00;;;;;;;;5079143;28;51100;-54
2021/08/17 04:47:25;;;;;;;;;16.50;14.50;;;;;;;;5079419;28;51292;-52
2021/08/17 04:49:51;;;;;;;;;15.75;14.25;;;;;;;;5078617;28;51144;-54
2021/08/17 04:52:17;;;;;;;;;17.25;14.50;;;;;;;;5078736;28;50812;-53
2021/08/17 04:54:42;;;;;;;;;15.75;13.75;;;;;;;;5078626;28;51015;-52
2021/08/17 04:57:07;;;;;;;;;16.75;15.50;;;;;;;;5060930;28;50844;-53
2021/08/17 04:59:32;;;;;;;;;14.25;12.50;;;;;;;;5078541;28;50984;-51
2021/08/17 05:01:58;;;;;;;;;17.00;16.25;;;;;;;;5079023;28;50936;-52
2021/08/17 05:04:23;;;;;;;;;13.00;12.75;;;;;;;;5078806;28;50898;-51
2021/08/17 05:06:48;;;;;;;;;15.00;14.50;;;;;;;;5060812;28;51060;-50
2021/08/17 05:09:13;;;;;;;;;15.50;14.25;;;;;;;;5078223;28;51833;-51
2021/08/17 05:11:38;;;;;;;;;15.25;14.75;;;;;;;;5057885;28;51039;-49
2021/08/17 05:14:06;;;;;;;;;18.25;17.50;;;;;;;;5075134;28;51171;-48
2021/08/17 05:16:31;;;;;;;;;20.00;19.00;;;;;;;;5075677;28;51028;-54
2021/08/17 05:18:56;;;;;;;;;15.00;14.75;;;;;;;;5056674;28;51920;-52
2021/08/17 05:21:22;;;;;;;;;15.75;13.75;;;;;;;;5075296;28;50986;-52
2021/08/17 05:23:47;;;;;;;;;16.25;15.25;;;;;;;;5075036;28;51042;-53
2021/08/17 05:26:12;;;;;;;;;16.75;15.50;;;;;;;;5075098;28;50945;-51
2021/08/17 05:28:38;;;;;;;;;18.00;14.50;;;;;;;;5074818;28;51130;-54
2021/08/17 05:31:03;;;;;;;;;15.25;14.00;;;;;;;;5074963;28;51118;-52
2021/08/17 05:33:28;;;;;;;;;14.50;14.00;;;;;;;;5074791;28;51154;-54
2021/08/17 05:35:53;;;;;;;;;14.00;13.00;;;;;;;;5075377;28;50993;-52
2021/08/17 05:38:18;;;;;;;;;15.75;13.75;;;;;;;;5074507;28;52178;-52
2021/08/17 05:40:44;;;;;;;;;17.00;15.50;;;;;;;;5074566;28;51174;-51
2021/08/17 05:43:09;;;;;;;;;13.00;11.25;;;;;;;;5074637;28;51166;-53
2021/08/17 05:45:34;;;;;;;;;14.75;13.75;;;;;;;;5074906;28;51239;-52
2021/08/17 05:48:00;;;;;;;;;13.50;13.25;;;;;;;;5074416;28;51752;-52
2021/08/17 05:50:25;;;;;;;;;17.75;16.00;;;;;;;;5074525;28;50952;-54
2021/08/17 05:52:50;;;;;;;;;15.25;14.25;;;;;;;;5074466;28;51183;-51
2021/08/17 05:55:15;;;;;;;;;13.50;13.50;;;;;;;;5074534;28;51305;-51
2021/08/17 05:57:41;;;;;;;;;17.75;16.25;;;;;;;;5074190;28;51047;-53
2021/08/17 06:00:13;;;;;;;;;13.00;11.33;;;;;;;;5074269;28;50934;-49
2021/08/17 06:02:39;;;;;;;;;14.67;14.67;;;;;;;;5056733;28;51025;-52
2021/08/17 06:05:04;;;;;;;;;18.25;16.50;;;;;;;;5074667;28;50940;-52
2021/08/17 06:07:29;;;;;;;;;18.00;17.50;;;;;;;;5055741;28;51741;-50
2021/08/17 06:09:55;;;;;;;;;9.33;9.00;;;;;;;;5073941;28;50995;-50
2021/08/17 06:12:20;;;;;;;;;10.33;10.33;;;;;;;;5073856;28;51035;-53
2021/08/17 06:14:45;;;;;;;;;10.00;9.00;;;;;;;;5074517;28;51204;-52
2021/08/17 06:17:11;;;;;;;;;15.33;14.33;;;;;;;;5073889;28;51969;-54
2021/08/17 06:19:36;;;;;;;;;14.67;12.67;;;;;;;;5074233;28;50912;-54
2021/08/17 06:22:01;;;;;;;;;12.33;12.00;;;;;;;;5073671;28;51048;-53
2021/08/17 06:24:27;;;;;;;;;13.00;12.00;;;;;;;;5073313;28;50858;-53
2021/08/17 06:26:52;;;;;;;;;12.67;12.33;;;;;;;;5073524;28;51896;-52
2021/08/17 06:29:17;;;;;;;;;13.00;12.33;;;;;;;;5074040;28;50969;-51
2021/08/17 06:31:43;;;;;;;;;13.33;12.00;;;;;;;;5063578;27;51111;-51
2021/08/17 06:34:08;;;;;;;;;14.67;14.00;;;;;;;;5074238;28;50970;-50
2021/08/17 06:36:36;;;;;;;;;14.33;13.00;;;;;;;;5073756;28;51887;-53
2021/08/17 06:39:02;;;;;;;;;13.67;12.00;;;;;;;;5073192;28;51424;-53
2021/08/17 06:41:27;;;;;;;;;13.67;11.67;;;;;;;;5073385;28;50931;-53
2021/08/17 06:43:53;;;;;;;;;13.00;13.00;;;;;;;;5074107;28;51006;-53
2021/08/17 06:46:18;;;;;;;;;11.33;10.67;;;;;;;;5072860;28;51181;-53
2021/08/17 06:48:43;;;;;;;;;10.33;10.33;;;;;;;;5073699;28;51093;-52
2021/08/17 06:51:10;;;;;;;;;15.00;14.00;;;;;;;;5054889;28;51049;-53
2021/08/17 06:53:35;;;;;;;;;12.67;12.33;;;;;;;;5073601;28;51121;-53
2021/08/17 06:56:00;;;;;;;;;12.33;11.33;;;;;;;;5054276;28;53153;-54
2021/08/17 06:58:25;;;;;;;;;11.67;10.67;;;;;;;;5073572;28;50997;-52
2021/08/17 07:00:51;;;;;;;;;13.67;13.67;;;;;;;;5073019;28;51186;-52
2021/08/17 07:03:16;;;;;;;;;13.00;12.33;;;;;;;;5073514;28;51236;-52
2021/08/17 07:05:43;;;;;;;;;13.00;11.33;;;;;;;;5072732;28;51888;-54
2021/08/17 07:08:09;;;;;;;;;12.00;12.00;;;;;;;;5073533;28;50957;-52
2021/08/17 07:10:34;;;;;;;;;11.33;10.67;;;;;;;;5073096;28;51089;-54
2021/08/17 07:13:00;;;;;;;;;11.33;11.00;;;;;;;;5073217;28;51288;-54
2021/08/17 07:15:25;;;;;;;;;12.00;12.00;;;;;;;;5072988;28;52314;-53
2021/08/17 07:17:50;;;;;;;;;15.33;13.67;;;;;;;;5073476;28;51067;-53
2021/08/17 07:20:16;;;;;;;;;16.00;12.67;;;;;;;;5072991;28;51319;-54
2021/08/17 07:22:41;;;;;;;;;8.33;8.33;;;;;;;;5073341;28;51112;-54
2021/08/17 07:25:07;;;;;;;;;11.33;11.00;;;;;;;;5072090;28;52024;-53
2021/08/17 07:27:32;;;;;;;;;8.33;7.67;;;;;;;;5073122;28;51017;-53
2021/08/17 07:29:57;;;;;;;;;10.33;10.00;;;;;;;;5072844;28;51258;-52
2021/08/17 07:32:22;;;;;;;;;12.33;11.33;;;;;;;;5073256;28;51099;-52
2021/08/17 07:34:48;;;;;;;;;10.00;9.67;;;;;;;;5071993;28;53757;-53
2021/08/17 07:37:13;;;;;;;;;9.33;9.00;;;;;;;;5072923;28;51072;-53
2021/08/17 07:39:38;;;;;;;;;13.33;11.67;;;;;;;;5072548;28;50969;-53
2021/08/17 07:42:03;;;;;;;;;11.00;10.00;;;;;;;;5072881;28;51286;-53
2021/08/17 07:44:30;;;;;;;;;8.67;8.00;;;;;;;;5072439;28;51116;-54
2021/08/17 07:46:55;;;;;;;;;8.00;8.00;;;;;;;;5072822;28;50844;-55
2021/08/17 07:49:20;;;;;;;;;9.00;9.00;;;;;;;;5072537;28;51045;-56
2021/08/17 07:51:46;;;;;;;;;10.33;10.00;;;;;;;;5072928;28;50890;-52
2021/08/17 07:54:11;;;;;;;;;10.67;10.00;;;;;;;;5071633;28;51807;-54
2021/08/17 07:56:36;;;;;;;;;10.33;9.67;;;;;;;;5072481;28;50874;-53
2021/08/17 07:59:01;;;;;;;;;9.00;9.00;;;;;;;;5072046;28;50781;-53
2021/08/17 08:01:27;;;;;;;;;10.33;10.33;;;;;;;;5072582;28;51208;-52
2021/08/17 08:03:52;;;;;;;;;8.33;8.00;;;;;;;;5072108;28;52831;-53
2021/08/17 08:06:18;;;;;;;;;8.67;8.67;;;;;;;;5072392;28;51846;-53
2021/08/17 08:08:43;;;;;;;;;9.33;9.00;;;;;;;;5072719;28;51173;-54
2021/08/17 08:11:08;;;;;;;;;10.00;9.00;;;;;;;;5071861;28;51570;-54
2021/08/17 08:13:34;;;;;;;;;8.00;8.00;;;;;;;;5071901;28;51972;-52
2021/08/17 08:15:59;;;;;;;;;10.67;9.67;;;;;;;;5058532;28;50946;-53
2021/08/17 08:18:24;;;;;;;;;11.67;9.33;;;;;;;;5071909;28;51045;-53
2021/08/17 08:20:49;;;;;;;;;11.00;10.33;;;;;;;;5072376;28;51298;-57
2021/08/17 08:23:14;;;;;;;;;11.75;11.50;;;;;;;;5071774;28;52137;-53
2021/08/17 08:25:40;;;;;;;;;9.00;9.00;;;;;;;;5071597;28;50885;-53
2021/08/17 08:28:06;;;;;;;;;9.00;8.00;;;;;;;;5072058;28;51049;-54
2021/08/17 08:30:31;;;;;;;;;9.33;8.33;;;;;;;;5072079;28;51021;-53
2021/08/17 08:32:56;;;;;;;;;7.33;7.33;;;;;;;;5057258;27;51138;-53
2021/08/17 08:35:21;;;;;;;;;8.67;8.33;;;;;;;;5070804;28;51033;-53
2021/08/17 08:37:47;;;;;;;;;12.33;12.00;;;;;;;;5072028;28;51139;-52
2021/08/17 08:40:12;;;;;;;;;11.67;10.33;;;;;;;;5071722;28;51184;-53
2021/08/17 08:42:38;;;;;;;;;10.00;9.00;;;;;;;;5053586;28;54023;-54
2021/08/17 08:45:03;;;;;;;;;10.67;10.00;;;;;;;;5071830;28;51140;-51
2021/08/17 08:47:29;;;;;;;;;12.00;10.00;;;;;;;;5073950;28;51051;-53
2021/08/17 08:49:54;;;;;;;;;9.67;8.00;;;;;;;;5075481;28;51164;-51
2021/08/17 08:52:20;;;;;;;;;10.00;9.00;;;;;;;;5074997;28;52138;-54
2021/08/17 08:54:46;;;;;;;;;8.67;8.00;;;;;;;;5074418;28;51065;-54
2021/08/17 08:57:11;;;;;;;;;9.33;9.33;;;;;;;;5075285;28;50922;-54
2021/08/17 08:59:36;;;;;;;;;10.00;10.00;;;;;;;;5075299;28;50993;-53
2021/08/17 09:02:04;;;;;;;;;7.33;7.33;;;;;;;;5074740;28;50976;-54
2021/08/17 09:04:30;;;;;;;;;9.33;9.33;;;;;;;;5074838;28;50934;-54
2021/08/17 09:06:55;;;;;;;;;8.33;7.67;;;;;;;;5075048;28;50871;-53
2021/08/17 09:09:20;;;;;;;;;8.33;6.67;;;;;;;;5056360;28;51103;-53
2021/08/17 09:11:52;;;;;;;;;9.33;9.00;;;;;;;;5074400;28;51177;-53
2021/08/17 09:14:20;;;;;;;;;13.67;12.33;;;;;;;;5056548;28;51061;-53
2021/08/17 09:16:46;;;;;;;;;11.33;11.33;;;;;;;;5074325;28;51425;-53
2021/08/17 09:19:31;;;;;;;;;9.67;9.00;;;;;;;;5074927;28;51313;-52
2021/08/17 09:21:59;;;;;;;;;8.00;8.00;;;;;;;;5074134;28;51831;-53
2021/08/17 09:24:32;;;;;;;;;10.33;10.00;;;;;;;;5074426;28;51061;-53
2021/08/17 09:27:02;;;;;;;;;11.00;9.00;;;;;;;;5056041;28;51075;-53
2021/08/17 09:29:29;;;;;;;;;10.33;10.33;;;;;;;;5056817;28;51417;-53
2021/08/17 09:31:55;;;;;;;;;11.67;11.33;;;;;;;;5073723;28;51105;-53
2021/08/17 09:34:21;;;;;;;;;7.00;7.00;;;;;;;;5074604;28;51068;-53
2021/08/17 09:36:48;;;;;;;;;10.00;9.33;;;;;;;;5074162;28;51001;-53
2021/08/17 09:39:44;;;;;;;;;11.33;10.00;;;;;;;;5074029;28;51062;-53
2021/08/17 09:42:12;;;;;;;;;9.00;9.00;;;;;;;;5056910;28;51944;-51
2021/08/17 09:44:38;;;;;;;;;11.67;10.67;;;;;;;;5055909;28;51078;-50
2021/08/17 09:47:03;;;;;;;;;9.00;9.00;;;;;;;;5055647;28;51011;-52
2021/08/17 09:49:32;;;;;;;;;10.00;9.67;;;;;;;;5074108;28;51219;-54
2021/08/17 09:51:59;;;;;;;;;10.67;10.33;;;;;;;;5073381;28;51824;-52
2021/08/17 09:54:25;;;;;;;;;9.00;8.33;;;;;;;;5073483;28;51095;-54
2021/08/17 09:56:57;;;;;;;;;10.00;9.00;;;;;;;;5074047;28;51023;-53
2021/08/17 09:59:24;;;;;;;;;8.00;5.33;;;;;;;;5074109;28;51366;-52
2021/08/17 10:01:50;;;;;;;;;12.00;10.67;;;;;;;;5073334;28;51924;-51
2021/08/17 10:04:16;;;;;;;;;8.67;8.67;;;;;;;;5055107;28;51072;-54
2021/08/17 10:06:44;;;;;;;;;9.33;9.00;;;;;;;;5073179;28;51027;-53
2021/08/17 10:09:11;;;;;;;;;7.67;7.33;;;;;;;;5073122;28;51165;-52
2021/08/17 10:11:36;;;;;;;;;14.00;13.33;;;;;;;;5072970;28;51753;-54
2021/08/17 10:14:02;;;;;;;;;10.00;10.00;;;;;;;;5072997;28;50983;-52
2021/08/17 10:16:27;;;;;;;;;9.00;9.00;;;;;;;;5073413;28;51087;-54
2021/08/17 10:18:55;;;;;;;;;9.67;9.00;;;;;;;;5073227;28;50968;-54
2021/08/17 10:21:20;;;;;;;;;13.67;10.00;;;;;;;;5072925;28;52426;-52
2021/08/17 10:23:45;;;;;;;;;8.00;7.67;;;;;;;;5072358;28;50977;-51
2021/08/17 10:26:30;;;;;;;;;10.33;9.67;;;;;;;;5073381;28;51249;-54
2021/08/17 10:28:55;;;;;;;;;9.00;9.00;;;;;;;;5073377;28;51213;-54
2021/08/17 10:31:25;;;;;;;;;10.33;9.67;;;;;;;;5072792;28;51111;-53
2021/08/17 10:33:53;;;;;;;;;10.67;10.00;;;;;;;;5065137;27;51288;-53
2021/08/17 10:36:27;;;;;;;;;10.67;9.00;;;;;;;;5073420;28;51048;-53
2021/08/17 10:38:53;;;;;;;;;8.33;7.67;;;;;;;;5072782;28;51293;-53
2021/08/17 10:41:23;;;;;;;;;11.67;10.67;;;;;;;;5072654;28;51859;-52
2021/08/17 10:43:48;;;;;;;;;8.67;8.00;;;;;;;;5073086;28;50933;-52
2021/08/17 10:46:16;;;;;;;;;11.67;11.00;;;;;;;;5072949;28;50880;-51
2021/08/17 10:48:50;;;;;;;;;11.00;10.00;;;;;;;;5073154;28;51186;-52
2021/08/17 10:51:18;;;;;;;;;11.67;10.67;;;;;;;;5072088;28;51053;-53
2021/08/17 10:54:03;;;;;;;;;10.00;9.00;;;;;;;;5072257;28;51084;-54
2021/08/17 10:56:30;;;;;;;;;10.33;10.33;;;;;;;;5071024;28;51057;-55
2021/08/17 10:58:58;;;;;;;;;9.00;9.00;;;;;;;;5072957;28;50926;-53
2021/08/17 11:01:29;;;;;;;;;13.33;11.33;;;;;;;;5072201;28;51152;-53
2021/08/17 11:03:55;;;;;;;;;11.67;11.33;;;;;;;;5072600;28;51122;-54
2021/08/17 11:06:39;;;;;;;;;10.00;9.67;;;;;;;;5072335;28;50947;-55
2021/08/17 11:09:06;;;;;;;;;12.33;10.33;;;;;;;;5071869;28;51263;-54
2021/08/17 11:11:31;;;;;;;;;12.00;11.67;;;;;;;;5072141;28;52011;-52
2021/08/17 11:14:03;;;;;;;;;12.67;12.00;;;;;;;;5072217;28;50957;-54
2021/08/17 11:16:29;;;;;;;;;9.67;9.67;;;;;;;;5072313;28;51131;-54
2021/08/17 11:18:55;;;;;;;;;10.33;9.67;;;;;;;;5053929;28;51341;-53
2021/08/17 11:21:33;;;;;;;;;11.67;11.00;;;;;;;;5072469;28;52303;-54
2021/08/17 11:24:06;;;;;;;;;11.67;11.67;;;;;;;;5071714;28;51013;-53
2021/08/17 11:26:31;;;;;;;;;11.00;9.67;;;;;;;;5071966;28;50951;-54
2021/08/17 11:28:56;;;;;;;;;11.00;10.00;;;;;;;;5072667;28;51053;-53
2021/08/17 11:31:22;;;;;;;;;11.67;10.00;;;;;;;;5072172;28;50899;-53
2021/08/17 11:33:48;;;;;;;;;12.67;12.67;;;;;;;;5071340;28;51004;-52
2021/08/17 11:36:20;;;;;;;;;10.00;9.00;;;;;;;;5072377;28;51076;-53
2021/08/17 11:38:45;;;;;;;;;9.33;8.67;;;;;;;;5053857;28;51327;-54
2021/08/17 11:41:27;;;;;;;;;11.00;9.67;;;;;;;;5071652;28;53229;-55
2021/08/17 11:44:08;;;;;;;;;9.00;9.00;;;;;;;;5072396;28;50919;-53
2021/08/17 11:46:33;;;;;;;;;9.00;8.67;;;;;;;;5072186;28;51053;-55
2021/08/17 11:49:17;;;;;;;;;10.33;9.67;;;;;;;;5072471;28;50873;-52
2021/08/17 11:51:43;;;;;;;;;11.00;10.00;;;;;;;;5071923;28;51945;-52
2021/08/17 11:54:08;;;;;;;;;15.00;14.67;;;;;;;;5071369;28;50998;-53
2021/08/17 11:56:33;;;;;;;;;10.67;9.00;;;;;;;;5072433;28;50967;-52
2021/08/17 11:58:58;;;;;;;;;10.67;10.00;;;;;;;;5053605;28;51400;-52
2021/08/17 12:01:24;;;;;;;;;10.00;9.00;;;;;;;;5071630;28;52037;-52
2021/08/17 12:03:49;;;;;;;;;7.67;7.00;;;;;;;;5071438;28;51037;-52
2021/08/17 12:06:14;;;;;;;;;8.33;8.33;;;;;;;;5071577;28;50851;-53
2021/08/17 12:08:40;;;;;;;;;8.67;7.33;;;;;;;;5071802;28;51197;-53
2021/08/17 12:11:05;;;;;;;;;8.67;7.67;;;;;;;;5053072;28;52045;-54
2021/08/17 12:13:39;;;;;;;;;8.33;7.00;;;;;;;;5071280;28;51061;-53
2021/08/17 12:16:04;;;;;;;;;9.00;8.00;;;;;;;;5059029;28;51252;-54
2021/08/17 12:18:33;;;;;;;;;10.00;8.00;;;;;;;;5071743;28;50812;-54
2021/08/17 12:21:07;;;;;;;;;6.00;6.00;;;;;;;;5072992;28;52245;-54
2021/08/17 12:23:34;;;;;;;;;8.67;8.67;;;;;;;;5074706;28;51303;-54
2021/08/17 12:26:10;;;;;;;;;7.00;7.00;;;;;;;;5074985;28;50982;-54
2021/08/17 12:28:36;;;;;;;;;7.33;7.33;;;;;;;;5075246;28;51273;-55
2021/08/17 12:31:07;;;;;;;;;8.00;8.00;;;;;;;;5074835;28;51790;-51
2021/08/17 12:33:32;;;;;;;;;11.00;10.00;;;;;;;;5067842;27;51030;-52
2021/08/17 12:35:57;;;;;;;;;8.00;8.00;;;;;;;;5066233;28;51085;-56
2021/08/17 12:38:23;;;;;;;;;7.33;7.00;;;;;;;;5075176;28;51303;-54
2021/08/17 12:40:49;;;;;;;;;7.67;7.00;;;;;;;;5074758;28;51987;-50
2021/08/17 12:43:18;;;;;;;;;6.33;6.00;;;;;;;;5074460;28;51199;-52
2021/08/17 12:45:43;;;;;;;;;8.67;8.00;;;;;;;;5074634;28;50966;-53
2021/08/17 12:48:13;;;;;;;;;6.33;5.33;;;;;;;;5075112;28;50933;-51
2021/08/17 12:50:39;;;;;;;;;7.33;7.33;;;;;;;;5074799;28;52188;-53
2021/08/17 12:53:15;;;;;;;;;5.00;5.00;;;;;;;;5055838;28;51070;-54
2021/08/17 12:55:40;;;;;;;;;7.00;7.00;;;;;;;;5073988;28;51011;-54
2021/08/17 12:58:06;;;;;;;;;9.00;7.00;;;;;;;;5074801;28;51402;-53
2021/08/17 13:00:32;;;;;;;;;6.00;5.00;;;;;;;;5074226;28;52746;-54
2021/08/17 13:02:58;;;;;;;;;7.00;6.00;;;;;;;;5074476;28;50966;-54
2021/08/17 13:05:23;;;;;;;;;5.00;5.00;;;;;;;;5074036;28;51118;-53
2021/08/17 13:07:49;;;;;;;;;6.33;5.67;;;;;;;;5074643;28;50914;-52
2021/08/17 13:10:17;;;;;;;;;6.67;6.00;;;;;;;;5073523;28;51026;-53
2021/08/17 13:12:43;;;;;;;;;5.67;5.67;;;;;;;;5054608;28;51123;-53
2021/08/17 13:15:09;;;;;;;;;7.00;6.33;;;;;;;;5073903;28;50907;-51
2021/08/17 13:17:34;;;;;;;;;5.33;5.00;;;;;;;;5074291;28;51386;-53
2021/08/17 13:19:59;;;;;;;;;6.00;5.33;;;;;;;;5073832;28;50993;-53
2021/08/17 13:22:25;;;;;;;;;6.33;4.67;;;;;;;;5073960;28;50967;-50
2021/08/17 13:24:51;;;;;;;;;5.67;5.00;;;;;;;;5073707;28;51006;-52
2021/08/17 13:27:16;;;;;;;;;7.00;6.00;;;;;;;;5074079;28;50977;-53
2021/08/17 13:29:41;;;;;;;;;6.33;5.67;;;;;;;;5073858;28;51898;-50
2021/08/17 13:32:07;;;;;;;;;5.00;5.00;;;;;;;;5073250;28;50956;-53
2021/08/17 13:34:32;;;;;;;;;6.33;6.00;;;;;;;;5074175;28;51223;-51
2021/08/17 13:36:59;;;;;;;;;4.00;4.00;;;;;;;;5074335;28;50985;-53
2021/08/17 13:39:25;;;;;;;;;5.33;5.00;;;;;;;;5073344;28;52348;-54
2021/08/17 13:41:50;;;;;;;;;6.00;6.00;;;;;;;;5073660;28;51085;-51
2021/08/17 13:44:15;;;;;;;;;5.00;5.00;;;;;;;;5073837;28;50993;-52
2021/08/17 13:46:40;;;;;;;;;6.67;6.00;;;;;;;;5073627;28;51334;-53
2021/08/17 13:49:06;;;;;;;;;5.00;5.00;;;;;;;;5073478;28;52114;-52
2021/08/17 13:51:31;;;;;;;;;6.00;5.00;;;;;;;;5073558;28;51028;-53
2021/08/17 13:53:56;;;;;;;;;4.00;4.00;;;;;;;;5073250;28;50978;-54
2021/08/17 13:56:22;;;;;;;;;5.00;4.00;;;;;;;;5073792;28;51321;-53
2021/08/17 13:58:48;;;;;;;;;6.00;5.00;;;;;;;;5073114;28;52622;-52
2021/08/17 14:01:14;;;;;;;;;4.00;4.00;;;;;;;;5073304;28;51198;-53
2021/08/17 14:03:43;;;;;;;;;6.00;6.00;;;;;;;;5073526;28;50947;-54
2021/08/17 14:06:08;;;;;;;;;6.00;5.00;;;;;;;;5072815;28;51046;-52
2021/08/17 14:08:34;;;;;;;;;7.67;7.00;;;;;;;;5072125;28;51934;-52
2021/08/17 14:10:59;;;;;;;;;6.00;5.00;;;;;;;;5072727;28;51134;-54
2021/08/17 14:13:24;;;;;;;;;6.00;5.33;;;;;;;;5073331;28;50953;-55
2021/08/17 14:15:49;;;;;;;;;6.33;6.00;;;;;;;;5073382;28;51168;-52
2021/08/17 14:18:15;;;;;;;;;6.00;6.00;;;;;;;;5072778;28;52171;-52
2021/08/17 14:20:40;;;;;;;;;6.00;6.00;;;;;;;;5072908;28;51253;-54